createdAt,value
2019-02-16T00:02:24.875Z,2.33
2019-02-16T00:06:29.424Z,2.63
2019-02-16T00:10:33.946Z,2.50
2019-02-16T00:14:38.436Z,2.10
2019-02-16T00:18:43.043Z,2.27
2019-02-16T00:22:47.563Z,2.37
2019-02-16T00:26:52.086Z,2.53
2019-02-16T00:30:56.663Z,2.37
2019-02-16T00:35:01.163Z,2.03
2019-02-16T00:39:06.464Z,2.73
2019-02-16T00:43:10.980Z,2.47
2019-02-16T00:47:15.519Z,2.70
2019-02-16T00:51:20.060Z,2.60
2019-02-16T00:55:24.542Z,3.00
2019-02-16T00:59:29.065Z,3.27
2019-02-16T01:03:33.683Z,2.73
2019-02-16T01:07:38.248Z,2.70
2019-02-16T01:11:42.680Z,3.07
2019-02-16T01:15:47.203Z,2.87
2019-02-16T01:19:51.724Z,3.73
2019-02-16T01:23:56.259Z,3.67
2019-02-16T01:28:00.775Z,3.45
2019-02-16T01:32:05.279Z,3.50
2019-02-16T01:36:09.794Z,3.77
2019-02-16T01:40:14.324Z,3.13
2019-02-16T01:44:18.848Z,3.40
2019-02-16T01:48:23.329Z,3.17
2019-02-16T01:52:27.892Z,3.92
2019-02-16T01:56:32.396Z,4.03
2019-02-16T02:00:36.917Z,3.67
2019-02-16T02:04:41.548Z,3.98
2019-02-16T02:08:46.122Z,4.12
2019-02-16T02:12:50.641Z,4.03
2019-02-16T02:16:55.183Z,4.03
2019-02-16T02:20:59.709Z,4.00
2019-02-16T02:25:04.323Z,3.80
2019-02-16T02:29:08.817Z,3.20
2019-02-16T02:33:13.363Z,3.57
2019-02-16T02:37:17.892Z,3.92
2019-02-16T02:41:22.428Z,4.00
2019-02-16T02:45:26.957Z,3.80
2019-02-16T02:49:31.447Z,4.15
2019-02-16T02:53:35.978Z,4.03
2019-02-16T02:57:40.479Z,3.97
2019-02-16T03:01:45.027Z,4.37
2019-02-16T03:05:49.693Z,4.08
2019-02-16T03:09:54.188Z,4.07
2019-02-16T03:13:58.742Z,4.30
2019-02-16T03:18:03.267Z,3.95
2019-02-16T03:22:07.876Z,3.77
2019-02-16T03:26:36.947Z,3.85
2019-02-16T03:30:54.432Z,3.80
2019-02-16T03:35:13.456Z,3.83
2019-02-16T03:39:24.126Z,4.70
2019-02-16T03:43:28.667Z,4.70
2019-02-16T03:59:43.563Z,4.27
2019-02-16T04:03:48.207Z,3.80
2019-02-16T04:07:52.760Z,3.53
2019-02-16T04:11:57.263Z,4.33
2019-02-16T04:16:01.797Z,4.05
2019-02-16T04:20:06.779Z,4.10
2019-02-16T04:24:11.313Z,3.98
2019-02-16T04:28:15.843Z,4.20
2019-02-16T04:32:20.367Z,4.17
2019-02-16T04:36:24.879Z,3.53
2019-02-16T04:40:29.411Z,4.03
2019-02-16T04:44:33.934Z,3.50
2019-02-16T04:48:38.461Z,3.27
2019-02-16T04:52:42.947Z,3.33
2019-02-16T04:56:47.465Z,3.00
2019-02-16T05:00:51.996Z,3.60
2019-02-16T05:04:56.560Z,3.63
2019-02-16T05:12:37.812Z,3.33
2019-02-16T05:16:42.343Z,3.30
2019-02-16T05:20:46.876Z,3.20
2019-02-16T05:24:51.419Z,2.90
2019-02-16T05:28:55.911Z,3.17
2019-02-16T05:33:00.462Z,3.57
2019-02-16T05:37:04.992Z,3.40
2019-02-16T05:41:09.520Z,3.30
2019-02-16T05:45:14.056Z,3.17
2019-02-16T05:49:18.543Z,26.23
2019-02-16T05:53:23.098Z,4.23
2019-02-16T05:57:27.617Z,4.47
2019-02-16T06:01:32.152Z,3.83
2019-02-16T06:05:36.724Z,4.10
2019-02-16T06:09:41.229Z,4.30
2019-02-16T06:13:45.763Z,3.40
2019-02-16T06:17:50.291Z,3.93
2019-02-16T06:21:54.829Z,4.10
2019-02-16T06:25:59.384Z,3.70
2019-02-16T06:30:03.867Z,3.83
2019-02-16T06:37:22.124Z,3.83
2019-02-16T06:45:08.086Z,4.10
2019-02-16T06:49:12.764Z,4.23
2019-02-16T06:53:17.390Z,3.80
2019-02-16T06:57:42.159Z,3.63
2019-02-16T07:03:20.099Z,3.77
2019-02-16T07:09:48.321Z,3.90
2019-02-16T07:13:52.954Z,3.67
2019-02-16T07:20:21.167Z,4.17
2019-02-16T07:24:25.698Z,4.33
2019-02-16T07:28:30.224Z,7.63
2019-02-16T07:32:34.730Z,4.07
2019-02-16T07:37:49.593Z,4.03
2019-02-16T07:41:54.123Z,4.10
2019-02-16T07:46:07.336Z,3.70
2019-02-16T07:50:29.389Z,3.80
2019-02-16T07:54:41.173Z,3.50
2019-02-16T07:59:10.748Z,3.40
2019-02-16T08:03:34.220Z,3.90
2019-02-16T08:08:07.032Z,4.00
2019-02-16T08:12:36.373Z,4.20
2019-02-16T08:17:05.297Z,3.57
2019-02-16T08:21:17.186Z,3.73
2019-02-16T08:25:43.404Z,3.57
2019-02-16T08:30:10.400Z,3.27
2019-02-16T08:34:27.477Z,3.40
2019-02-16T08:38:50.981Z,3.80
2019-02-16T08:43:13.145Z,3.27
2019-02-16T08:47:32.336Z,2.93
2019-02-16T08:51:55.085Z,3.47
2019-02-16T08:56:13.986Z,3.53
2019-02-16T09:00:40.299Z,3.70
2019-02-16T09:05:12.841Z,4.00
2019-02-16T09:09:35.292Z,3.63
2019-02-16T09:13:53.891Z,3.97
2019-02-16T09:18:23.666Z,4.03
2019-02-16T09:22:48.129Z,3.13
2019-02-16T09:27:31.289Z,4.10
2019-02-16T09:31:57.596Z,3.67
2019-02-16T09:36:16.429Z,3.87
2019-02-16T09:40:39.898Z,3.30
2019-02-16T09:45:02.143Z,3.63
2019-02-16T09:49:23.522Z,3.30
2019-02-16T09:53:49.877Z,3.70
2019-02-16T09:58:31.819Z,3.27
2019-02-16T10:02:46.313Z,3.87
2019-02-16T10:07:09.835Z,3.53
2019-02-16T10:11:32.220Z,3.70
2019-02-16T10:15:54.373Z,2.93
2019-02-16T10:20:11.857Z,3.50
2019-02-16T10:24:37.790Z,4.65
2019-02-16T10:28:51.591Z,4.60
2019-02-16T10:33:13.885Z,4.50
2019-02-16T10:37:36.018Z,4.10
2019-02-16T10:41:58.391Z,4.23
2019-02-16T10:46:21.869Z,4.47
2019-02-16T10:50:34.271Z,4.30
2019-02-16T10:54:56.651Z,5.13
2019-02-16T10:59:26.179Z,5.00
2019-02-16T11:03:52.466Z,5.00
2019-02-16T11:08:12.791Z,5.37
2019-02-16T11:12:36.265Z,5.40
2019-02-16T11:16:49.302Z,4.97
2019-02-16T11:21:22.102Z,5.47
2019-02-16T11:25:51.348Z,5.77
2019-02-16T11:30:26.890Z,6.10
2019-02-16T11:34:38.878Z,5.60
2019-02-16T11:39:08.095Z,5.90
2019-02-16T11:43:43.753Z,6.77
2019-02-16T11:48:16.048Z,6.50
2019-02-16T11:52:38.132Z,7.13
2019-02-16T11:56:56.184Z,6.93
2019-02-16T12:01:09.969Z,7.27
2019-02-16T12:05:28.739Z,7.83
2019-02-16T12:09:50.586Z,8.20
2019-02-16T12:14:12.733Z,8.33
2019-02-16T12:18:39.256Z,8.37
2019-02-16T12:22:53.167Z,8.73
2019-02-16T12:27:22.424Z,8.47
2019-02-16T12:31:51.859Z,8.60
2019-02-16T12:36:07.547Z,8.23
2019-02-16T12:40:21.953Z,8.10
2019-02-16T12:44:35.875Z,8.70
2019-02-16T12:48:59.795Z,8.43
2019-02-16T12:53:32.722Z,9.00
2019-02-16T12:57:51.744Z,9.73
2019-02-16T13:02:16.948Z,8.50
2019-02-16T13:06:39.205Z,8.87
2019-02-16T13:11:02.180Z,8.90
2019-02-16T13:15:16.817Z,8.97
2019-02-16T13:19:43.111Z,9.43
2019-02-16T13:24:08.194Z,10.75
2019-02-16T13:28:43.766Z,9.83
2019-02-16T13:33:08.451Z,10.10
2019-02-16T13:37:18.209Z,8.20
2019-02-16T13:41:57.069Z,8.90
2019-02-16T13:46:20.563Z,8.63
2019-02-16T13:50:33.512Z,9.03
2019-02-16T13:54:58.511Z,9.17
2019-02-16T13:59:20.696Z,8.80
2019-02-16T14:03:37.122Z,8.60
2019-02-16T14:08:03.499Z,8.83
2019-02-16T14:12:19.663Z,9.17
2019-02-16T14:16:43.177Z,8.10
2019-02-16T14:20:47.705Z,9.97
2019-02-16T14:24:54.960Z,8.70
2019-02-16T14:28:59.604Z,8.23
2019-02-16T14:33:04.169Z,9.00
2019-02-16T14:37:19.243Z,9.03
2019-02-16T14:41:23.784Z,9.20
2019-02-16T14:45:28.989Z,8.63
2019-02-16T14:49:33.543Z,9.00
2019-02-16T14:53:38.100Z,8.93
2019-02-16T14:57:42.659Z,8.33
2019-02-16T15:01:47.195Z,9.70
2019-02-16T15:05:51.867Z,8.87
2019-02-16T15:09:56.432Z,9.63
2019-02-16T15:14:01.153Z,8.50
2019-02-16T15:18:05.716Z,9.70
2019-02-16T15:22:10.252Z,9.27
2019-02-16T15:26:14.807Z,9.53
2019-02-16T15:30:19.547Z,8.90
2019-02-16T15:34:24.117Z,8.90
2019-02-16T15:38:28.761Z,9.20
2019-02-16T15:42:33.275Z,9.20
2019-02-16T15:46:37.819Z,8.87
2019-02-16T15:50:42.395Z,8.83
2019-02-16T15:54:46.957Z,9.27
2019-02-16T15:58:51.539Z,9.60
2019-02-16T16:02:56.026Z,8.63
2019-02-16T16:07:01.416Z,8.67
2019-02-16T16:11:09.522Z,8.60
2019-02-16T16:15:26.754Z,8.00
2019-02-16T16:19:46.483Z,8.30
2019-02-16T16:24:15.824Z,7.90
2019-02-16T16:28:45.600Z,8.37
2019-02-16T16:33:27.631Z,8.30
2019-02-16T16:37:51.125Z,8.57
2019-02-16T16:42:20.987Z,8.70
2019-02-16T16:46:44.865Z,7.33
2019-02-16T16:51:26.720Z,8.20
2019-02-16T16:55:43.406Z,7.50
2019-02-16T17:00:00.827Z,8.97
2019-02-16T17:04:24.289Z,8.33
2019-02-16T17:08:52.804Z,10.25
2019-02-16T17:13:07.184Z,9.07
2019-02-16T17:17:27.760Z,9.20
2019-02-16T17:21:51.239Z,9.40
2019-02-16T17:26:24.085Z,8.40
2019-02-16T17:30:47.684Z,9.40
2019-02-16T17:35:14.212Z,9.53
2019-02-16T17:39:37.703Z,9.40
2019-02-16T17:44:07.374Z,9.63
2019-02-16T17:50:32.050Z,8.90
2019-02-16T17:54:58.591Z,10.63
2019-02-16T17:59:11.787Z,11.00
2019-02-16T18:03:33.963Z,10.90
2019-02-16T18:08:15.679Z,10.88
2019-02-16T18:12:50.053Z,11.30
2019-02-16T18:17:31.785Z,12.10
2019-02-16T18:22:02.067Z,10.43
2019-02-16T18:26:23.026Z,10.20
2019-02-16T18:30:58.567Z,10.68
2019-02-16T18:35:13.460Z,10.90
2019-02-16T18:39:39.697Z,10.40
2019-02-16T18:44:09.204Z,11.53
2019-02-16T18:48:44.869Z,11.78
2019-02-16T18:53:11.347Z,12.63
2019-02-16T18:57:47.094Z,11.33
2019-02-16T19:02:16.679Z,12.20
2019-02-16T19:06:31.923Z,14.93
2019-02-16T19:11:04.604Z,15.10
2019-02-16T19:15:31.190Z,15.72
2019-02-16T19:20:10.174Z,13.95
2019-02-16T19:24:30.475Z,15.10
2019-02-16T19:28:52.617Z,13.30
2019-02-16T19:33:18.967Z,15.13
2019-02-16T19:37:32.500Z,15.05
2019-02-16T19:42:05.342Z,16.00
2019-02-16T19:46:47.123Z,15.67
2019-02-16T19:51:10.207Z,16.03
2019-02-16T19:55:42.763Z,14.58
2019-02-16T20:00:12.318Z,15.27
2019-02-16T20:04:34.553Z,14.78
2019-02-16T20:08:48.899Z,15.20
2019-02-16T20:13:18.745Z,16.12
2019-02-16T20:17:51.203Z,17.07
2019-02-16T20:22:20.768Z,16.45
2019-02-16T20:26:34.435Z,16.00
2019-02-16T20:30:49.031Z,16.17
2019-02-16T20:35:11.172Z,15.80
2019-02-16T20:39:46.854Z,17.13
2019-02-16T20:44:16.317Z,14.28
2019-02-16T20:48:32.005Z,15.30
2019-02-16T20:53:04.317Z,14.28
2019-02-16T20:57:26.666Z,14.50
2019-02-16T21:01:48.932Z,16.70
2019-02-16T21:06:11.908Z,16.73
2019-02-16T21:10:50.524Z,15.60
2019-02-16T21:15:32.435Z,13.85
2019-02-16T21:19:44.759Z,14.47
2019-02-16T21:24:11.267Z,14.35
2019-02-16T21:28:32.106Z,13.85
2019-02-16T21:32:42.109Z,13.55
2019-02-16T21:37:11.857Z,12.63
2019-02-16T21:41:35.334Z,12.13
2019-02-16T21:45:57.460Z,11.83
2019-02-16T21:50:27.210Z,10.70
2019-02-16T21:54:39.273Z,10.68
2019-02-16T21:59:07.515Z,11.63
2019-02-16T22:03:33.683Z,11.78
2019-02-16T22:08:03.256Z,11.57
2019-02-16T22:12:26.729Z,11.83
2019-02-16T22:16:31.299Z,11.18
2019-02-16T22:20:35.835Z,9.60
2019-02-16T22:24:40.336Z,10.67
2019-02-16T22:28:44.868Z,9.83
2019-02-16T22:32:49.409Z,13.70
2019-02-16T22:36:53.959Z,12.53
2019-02-16T22:40:58.505Z,9.93
2019-02-16T22:45:03.005Z,11.13
2019-02-16T22:49:07.540Z,9.40
2019-02-16T22:53:12.117Z,10.90
2019-02-16T22:57:31.365Z,10.60
2019-02-16T23:01:36.016Z,10.00
2019-02-16T23:05:40.623Z,10.70
2019-02-16T23:09:45.183Z,11.27
2019-02-16T23:13:49.824Z,9.80
2019-02-16T23:20:42.772Z,10.23
2019-02-16T23:25:26.064Z,10.40
2019-02-16T23:30:25.012Z,10.53
2019-02-16T23:34:29.540Z,10.63
2019-02-16T23:41:56.990Z,11.93
2019-02-16T23:46:30.843Z,11.50
2019-02-16T23:50:35.406Z,10.00
2019-02-16T23:54:39.976Z,9.70
2019-02-16T23:58:49.375Z,11.33
